sensor_id;sensor_type;location;lat;lon;timestamp;temperature;humidity
33715;DHT22;20043;50.998;4.754;2023-06-26T00:00:14;24.70;99.90
33715;DHT22;20043;50.998;4.754;2023-06-26T00:02:40;24.70;99.90
33715;DHT22;20043;50.998;4.754;2023-06-26T00:05:06;24.70;99.90
33715;DHT22;20043;50.998;4.754;2023-06-26T00:07:32;24.70;99.90
33715;DHT22;20043;50.998;4.754;2023-06-26T00:10:01;24.50;99.90
33715;DHT22;20043;50.998;4.754;2023-06-26T00:12:28;24.50;99.90
33715;DHT22;20043;50.998;4.754;2023-06-26T00:14:53;24.40;99.90
33715;DHT22;20043;50.998;4.754;2023-06-26T00:17:19;24.30;99.90
33715;DHT22;20043;50.998;4.754;2023-06-26T00:19:45;24.40;99.90
33715;DHT22;20043;50.998;4.754;2023-06-26T00:22:11;24.20;99.90
33715;DHT22;20043;50.998;4.754;2023-06-26T00:24:36;24.20;99.90
33715;DHT22;20043;50.998;4.754;2023-06-26T00:27:02;24.30;99.90
33715;DHT22;20043;50.998;4.754;2023-06-26T00:29:28;24.20;99.90
33715;DHT22;20043;50.998;4.754;2023-06-26T00:31:53;24.30;99.90
33715;DHT22;20043;50.998;4.754;2023-06-26T00:34:19;24.20;99.90
33715;DHT22;20043;50.998;4.754;2023-06-26T00:36:44;24.10;99.90
33715;DHT22;20043;50.998;4.754;2023-06-26T00:39:11;24.10;99.90
33715;DHT22;20043;50.998;4.754;2023-06-26T00:41:39;24.00;99.90
33715;DHT22;20043;50.998;4.754;2023-06-26T00:44:05;23.90;99.90
33715;DHT22;20043;50.998;4.754;2023-06-26T00:46:31;23.90;99.90
33715;DHT22;20043;50.998;4.754;2023-06-26T00:48:59;23.80;99.90
33715;DHT22;20043;50.998;4.754;2023-06-26T00:51:26;23.80;99.90
33715;DHT22;20043;50.998;4.754;2023-06-26T00:53:52;23.80;99.90
33715;DHT22;20043;50.998;4.754;2023-06-26T00:56:19;23.80;99.90
33715;DHT22;20043;50.998;4.754;2023-06-26T00:58:45;23.80;99.90
33715;DHT22;20043;50.998;4.754;2023-06-26T01:01:11;23.80;99.90
33715;DHT22;20043;50.998;4.754;2023-06-26T01:03:43;23.60;99.90
33715;DHT22;20043;50.998;4.754;2023-06-26T01:06:11;23.50;99.90
33715;DHT22;20043;50.998;4.754;2023-06-26T01:08:37;23.50;99.90
33715;DHT22;20043;50.998;4.754;2023-06-26T01:11:04;23.40;99.90
33715;DHT22;20043;50.998;4.754;2023-06-26T01:13:29;23.50;99.90
33715;DHT22;20043;50.998;4.754;2023-06-26T01:15:57;23.60;99.90
33715;DHT22;20043;50.998;4.754;2023-06-26T01:18:24;23.40;99.90
33715;DHT22;20043;50.998;4.754;2023-06-26T01:20:51;23.40;99.90
33715;DHT22;20043;50.998;4.754;2023-06-26T01:28:38;23.30;99.90
33715;DHT22;20043;50.998;4.754;2023-06-26T01:31:06;23.10;99.90
33715;DHT22;20043;50.998;4.754;2023-06-26T01:33:32;23.10;99.90
33715;DHT22;20043;50.998;4.754;2023-06-26T01:35:58;23.10;99.90
33715;DHT22;20043;50.998;4.754;2023-06-26T01:38:24;23.00;99.90
33715;DHT22;20043;50.998;4.754;2023-06-26T01:40:51;22.90;99.90
33715;DHT22;20043;50.998;4.754;2023-06-26T01:46:40;22.70;99.90
33715;DHT22;20043;50.998;4.754;2023-06-26T01:52:09;22.40;99.90
33715;DHT22;20043;50.998;4.754;2023-06-26T01:54:55;22.40;99.90
33715;DHT22;20043;50.998;4.754;2023-06-26T01:57:22;22.40;99.90
33715;DHT22;20043;50.998;4.754;2023-06-26T01:59:48;22.30;99.90
33715;DHT22;20043;50.998;4.754;2023-06-26T02:02:15;22.40;99.90
33715;DHT22;20043;50.998;4.754;2023-06-26T02:04:41;22.40;99.90
33715;DHT22;20043;50.998;4.754;2023-06-26T02:07:07;22.40;99.90
33715;DHT22;20043;50.998;4.754;2023-06-26T02:09:34;22.40;99.90
33715;DHT22;20043;50.998;4.754;2023-06-26T02:12:00;22.30;99.90
33715;DHT22;20043;50.998;4.754;2023-06-26T02:14:26;22.30;99.90
33715;DHT22;20043;50.998;4.754;2023-06-26T02:16:51;22.30;99.90
33715;DHT22;20043;50.998;4.754;2023-06-26T02:19:17;22.40;99.90
33715;DHT22;20043;50.998;4.754;2023-06-26T02:21:48;22.40;99.90
33715;DHT22;20043;50.998;4.754;2023-06-26T02:24:14;22.30;99.90
33715;DHT22;20043;50.998;4.754;2023-06-26T02:26:40;22.20;99.90
33715;DHT22;20043;50.998;4.754;2023-06-26T02:29:06;22.20;99.90
33715;DHT22;20043;50.998;4.754;2023-06-26T02:31:31;22.20;99.90
33715;DHT22;20043;50.998;4.754;2023-06-26T02:33:57;22.20;99.90
33715;DHT22;20043;50.998;4.754;2023-06-26T02:36:23;22.20;99.90
33715;DHT22;20043;50.998;4.754;2023-06-26T02:38:48;22.20;99.90
33715;DHT22;20043;50.998;4.754;2023-06-26T02:41:14;22.10;99.90
33715;DHT22;20043;50.998;4.754;2023-06-26T02:43:39;22.00;99.90
33715;DHT22;20043;50.998;4.754;2023-06-26T02:46:05;21.80;99.90
33715;DHT22;20043;50.998;4.754;2023-06-26T02:48:31;21.80;99.90
33715;DHT22;20043;50.998;4.754;2023-06-26T02:51:03;21.70;99.90
33715;DHT22;20043;50.998;4.754;2023-06-26T02:53:29;21.70;99.90
33715;DHT22;20043;50.998;4.754;2023-06-26T02:55:54;21.70;99.90
33715;DHT22;20043;50.998;4.754;2023-06-26T02:58:20;21.70;99.90
33715;DHT22;20043;50.998;4.754;2023-06-26T03:00:45;21.50;99.90
33715;DHT22;20043;50.998;4.754;2023-06-26T03:03:12;21.40;99.90
33715;DHT22;20043;50.998;4.754;2023-06-26T03:05:44;21.40;99.90
33715;DHT22;20043;50.998;4.754;2023-06-26T03:08:10;21.40;99.90
33715;DHT22;20043;50.998;4.754;2023-06-26T03:10:35;21.50;99.90
33715;DHT22;20043;50.998;4.754;2023-06-26T03:13:01;21.50;99.90
33715;DHT22;20043;50.998;4.754;2023-06-26T03:15:26;21.50;99.90
33715;DHT22;20043;50.998;4.754;2023-06-26T03:17:52;21.40;99.90
33715;DHT22;20043;50.998;4.754;2023-06-26T03:20:18;21.30;99.90
33715;DHT22;20043;50.998;4.754;2023-06-26T03:22:43;21.30;99.90
33715;DHT22;20043;50.998;4.754;2023-06-26T03:25:09;21.30;99.90
33715;DHT22;20043;50.998;4.754;2023-06-26T03:27:34;21.20;99.90
33715;DHT22;20043;50.998;4.754;2023-06-26T03:30:00;21.20;99.90
33715;DHT22;20043;50.998;4.754;2023-06-26T03:32:25;21.10;99.90
33715;DHT22;20043;50.998;4.754;2023-06-26T03:34:51;21.00;99.90
33715;DHT22;20043;50.998;4.754;2023-06-26T03:37:18;21.10;99.90
33715;DHT22;20043;50.998;4.754;2023-06-26T03:39:44;21.10;99.90
33715;DHT22;20043;50.998;4.754;2023-06-26T03:42:09;21.10;99.90
33715;DHT22;20043;50.998;4.754;2023-06-26T03:44:35;21.00;99.90
33715;DHT22;20043;50.998;4.754;2023-06-26T03:47:00;21.00;99.90
33715;DHT22;20043;50.998;4.754;2023-06-26T03:49:26;20.90;99.90
33715;DHT22;20043;50.998;4.754;2023-06-26T03:51:51;21.00;99.90
33715;DHT22;20043;50.998;4.754;2023-06-26T03:54:17;20.90;99.90
33715;DHT22;20043;50.998;4.754;2023-06-26T03:56:43;21.00;99.90
33715;DHT22;20043;50.998;4.754;2023-06-26T03:59:09;21.00;99.90
33715;DHT22;20043;50.998;4.754;2023-06-26T04:01:36;20.90;99.90
33715;DHT22;20043;50.998;4.754;2023-06-26T04:04:02;21.00;99.90
33715;DHT22;20043;50.998;4.754;2023-06-26T04:06:28;21.00;99.90
33715;DHT22;20043;50.998;4.754;2023-06-26T04:08:54;21.00;99.90
33715;DHT22;20043;50.998;4.754;2023-06-26T04:11:19;21.10;99.90
33715;DHT22;20043;50.998;4.754;2023-06-26T04:13:45;21.00;99.90
33715;DHT22;20043;50.998;4.754;2023-06-26T04:16:10;20.90;99.90
33715;DHT22;20043;50.998;4.754;2023-06-26T04:18:37;20.80;99.90
33715;DHT22;20043;50.998;4.754;2023-06-26T04:21:12;20.70;99.90
33715;DHT22;20043;50.998;4.754;2023-06-26T04:23:41;20.60;99.90
33715;DHT22;20043;50.998;4.754;2023-06-26T04:26:07;20.80;99.90
33715;DHT22;20043;50.998;4.754;2023-06-26T04:28:33;20.90;99.90
33715;DHT22;20043;50.998;4.754;2023-06-26T04:31:01;21.10;99.90
33715;DHT22;20043;50.998;4.754;2023-06-26T04:33:27;21.30;99.90
33715;DHT22;20043;50.998;4.754;2023-06-26T04:35:53;21.30;99.90
33715;DHT22;20043;50.998;4.754;2023-06-26T04:38:19;21.40;99.90
33715;DHT22;20043;50.998;4.754;2023-06-26T04:40:47;21.40;99.90
33715;DHT22;20043;50.998;4.754;2023-06-26T04:43:12;21.50;99.90
33715;DHT22;20043;50.998;4.754;2023-06-26T04:45:38;21.70;99.90
33715;DHT22;20043;50.998;4.754;2023-06-26T04:48:04;21.90;99.90
33715;DHT22;20043;50.998;4.754;2023-06-26T04:50:31;22.10;99.90
33715;DHT22;20043;50.998;4.754;2023-06-26T04:52:58;22.10;99.90
33715;DHT22;20043;50.998;4.754;2023-06-26T04:55:24;22.30;99.90
33715;DHT22;20043;50.998;4.754;2023-06-26T04:57:50;22.30;99.90
33715;DHT22;20043;50.998;4.754;2023-06-26T05:00:16;22.50;99.90
33715;DHT22;20043;50.998;4.754;2023-06-26T05:02:42;22.50;99.90
33715;DHT22;20043;50.998;4.754;2023-06-26T05:05:08;22.70;99.90
33715;DHT22;20043;50.998;4.754;2023-06-26T05:07:34;22.50;99.90
33715;DHT22;20043;50.998;4.754;2023-06-26T05:09:59;22.50;99.90
33715;DHT22;20043;50.998;4.754;2023-06-26T05:12:25;22.70;99.90
33715;DHT22;20043;50.998;4.754;2023-06-26T05:14:51;22.80;99.90
33715;DHT22;20043;50.998;4.754;2023-06-26T05:17:16;23.00;99.90
33715;DHT22;20043;50.998;4.754;2023-06-26T05:19:42;23.10;99.90
33715;DHT22;20043;50.998;4.754;2023-06-26T05:22:08;23.20;99.90
33715;DHT22;20043;50.998;4.754;2023-06-26T05:24:35;23.60;99.90
33715;DHT22;20043;50.998;4.754;2023-06-26T05:27:01;23.90;99.90
33715;DHT22;20043;50.998;4.754;2023-06-26T05:29:30;24.00;99.90
33715;DHT22;20043;50.998;4.754;2023-06-26T05:31:56;24.10;99.90
33715;DHT22;20043;50.998;4.754;2023-06-26T05:34:26;23.80;99.90
33715;DHT22;20043;50.998;4.754;2023-06-26T05:37:00;23.80;99.90
33715;DHT22;20043;50.998;4.754;2023-06-26T05:39:27;23.60;99.90
33715;DHT22;20043;50.998;4.754;2023-06-26T05:41:53;23.50;99.90
33715;DHT22;20043;50.998;4.754;2023-06-26T05:44:19;23.70;99.90
33715;DHT22;20043;50.998;4.754;2023-06-26T05:46:45;23.90;99.90
33715;DHT22;20043;50.998;4.754;2023-06-26T05:49:11;23.70;99.90
33715;DHT22;20043;50.998;4.754;2023-06-26T05:51:37;23.80;99.90
33715;DHT22;20043;50.998;4.754;2023-06-26T05:54:03;23.70;99.90
33715;DHT22;20043;50.998;4.754;2023-06-26T05:56:28;23.70;99.90
33715;DHT22;20043;50.998;4.754;2023-06-26T05:58:54;23.70;99.90
33715;DHT22;20043;50.998;4.754;2023-06-26T06:01:20;24.00;99.90
33715;DHT22;20043;50.998;4.754;2023-06-26T06:03:46;24.00;99.90
33715;DHT22;20043;50.998;4.754;2023-06-26T06:06:12;23.90;99.90
33715;DHT22;20043;50.998;4.754;2023-06-26T06:08:37;23.70;99.90
33715;DHT22;20043;50.998;4.754;2023-06-26T06:11:03;23.80;99.90
33715;DHT22;20043;50.998;4.754;2023-06-26T06:13:29;23.70;99.90
33715;DHT22;20043;50.998;4.754;2023-06-26T06:15:54;23.60;99.90
33715;DHT22;20043;50.998;4.754;2023-06-26T06:18:20;23.60;99.90
33715;DHT22;20043;50.998;4.754;2023-06-26T06:20:46;23.60;99.90
33715;DHT22;20043;50.998;4.754;2023-06-26T06:23:12;23.40;99.90
33715;DHT22;20043;50.998;4.754;2023-06-26T06:25:38;23.60;99.90
33715;DHT22;20043;50.998;4.754;2023-06-26T06:28:04;23.70;99.90
33715;DHT22;20043;50.998;4.754;2023-06-26T06:30:30;23.70;99.90
33715;DHT22;20043;50.998;4.754;2023-06-26T06:32:57;23.50;99.90
33715;DHT22;20043;50.998;4.754;2023-06-26T06:35:23;23.60;99.90
33715;DHT22;20043;50.998;4.754;2023-06-26T06:37:49;23.60;99.90
33715;DHT22;20043;50.998;4.754;2023-06-26T06:40:15;23.50;99.90
33715;DHT22;20043;50.998;4.754;2023-06-26T06:42:40;23.70;99.90
33715;DHT22;20043;50.998;4.754;2023-06-26T06:45:06;23.60;99.90
33715;DHT22;20043;50.998;4.754;2023-06-26T06:47:33;23.50;99.90
33715;DHT22;20043;50.998;4.754;2023-06-26T06:50:02;23.30;99.90
33715;DHT22;20043;50.998;4.754;2023-06-26T06:52:35;23.40;99.90
33715;DHT22;20043;50.998;4.754;2023-06-26T06:55:01;23.60;99.90
33715;DHT22;20043;50.998;4.754;2023-06-26T06:57:32;23.80;99.90
33715;DHT22;20043;50.998;4.754;2023-06-26T07:00:02;23.90;99.90
33715;DHT22;20043;50.998;4.754;2023-06-26T07:02:30;23.60;99.90
33715;DHT22;20043;50.998;4.754;2023-06-26T07:04:55;23.50;99.90
33715;DHT22;20043;50.998;4.754;2023-06-26T07:07:21;23.50;99.90
33715;DHT22;20043;50.998;4.754;2023-06-26T07:09:46;23.50;99.90
33715;DHT22;20043;50.998;4.754;2023-06-26T07:12:12;23.60;99.90
33715;DHT22;20043;50.998;4.754;2023-06-26T07:14:39;23.70;99.90
33715;DHT22;20043;50.998;4.754;2023-06-26T07:17:04;23.60;99.90
33715;DHT22;20043;50.998;4.754;2023-06-26T07:19:30;23.60;99.90
33715;DHT22;20043;50.998;4.754;2023-06-26T07:21:55;23.70;99.90
33715;DHT22;20043;50.998;4.754;2023-06-26T07:24:21;23.90;99.90
33715;DHT22;20043;50.998;4.754;2023-06-26T07:26:46;23.90;99.90
33715;DHT22;20043;50.998;4.754;2023-06-26T07:29:12;23.70;99.90
33715;DHT22;20043;50.998;4.754;2023-06-26T07:31:38;23.70;99.90
33715;DHT22;20043;50.998;4.754;2023-06-26T07:34:03;23.70;99.90
33715;DHT22;20043;50.998;4.754;2023-06-26T07:36:29;23.60;99.90
33715;DHT22;20043;50.998;4.754;2023-06-26T07:38:54;23.70;99.90
33715;DHT22;20043;50.998;4.754;2023-06-26T07:41:20;24.00;99.90
33715;DHT22;20043;50.998;4.754;2023-06-26T07:43:45;24.10;99.90
33715;DHT22;20043;50.998;4.754;2023-06-26T07:46:11;24.00;99.90
33715;DHT22;20043;50.998;4.754;2023-06-26T07:48:36;23.90;99.90
33715;DHT22;20043;50.998;4.754;2023-06-26T07:51:02;23.90;99.90
33715;DHT22;20043;50.998;4.754;2023-06-26T07:53:27;23.90;99.90
33715;DHT22;20043;50.998;4.754;2023-06-26T07:55:53;23.90;99.90
33715;DHT22;20043;50.998;4.754;2023-06-26T07:58:19;24.00;99.90
33715;DHT22;20043;50.998;4.754;2023-06-26T08:00:44;23.90;99.90
33715;DHT22;20043;50.998;4.754;2023-06-26T08:03:10;23.90;99.90
33715;DHT22;20043;50.998;4.754;2023-06-26T08:05:35;23.90;99.90
33715;DHT22;20043;50.998;4.754;2023-06-26T08:08:01;24.00;99.90
33715;DHT22;20043;50.998;4.754;2023-06-26T08:10:28;24.00;99.90
33715;DHT22;20043;50.998;4.754;2023-06-26T08:12:54;24.10;99.90
33715;DHT22;20043;50.998;4.754;2023-06-26T08:15:20;24.20;99.90
33715;DHT22;20043;50.998;4.754;2023-06-26T08:17:46;24.20;99.90
33715;DHT22;20043;50.998;4.754;2023-06-26T08:20:12;24.20;99.90
33715;DHT22;20043;50.998;4.754;2023-06-26T08:22:38;24.50;99.90
33715;DHT22;20043;50.998;4.754;2023-06-26T08:25:04;24.70;99.90
33715;DHT22;20043;50.998;4.754;2023-06-26T08:27:31;24.70;99.90
33715;DHT22;20043;50.998;4.754;2023-06-26T08:29:57;24.80;99.90
33715;DHT22;20043;50.998;4.754;2023-06-26T08:32:22;24.80;99.90
33715;DHT22;20043;50.998;4.754;2023-06-26T08:34:48;24.80;99.90
33715;DHT22;20043;50.998;4.754;2023-06-26T08:37:14;24.80;99.90
33715;DHT22;20043;50.998;4.754;2023-06-26T08:39:39;24.90;99.90
33715;DHT22;20043;50.998;4.754;2023-06-26T08:42:05;24.90;99.90
33715;DHT22;20043;50.998;4.754;2023-06-26T08:44:30;25.00;99.90
33715;DHT22;20043;50.998;4.754;2023-06-26T08:46:58;24.60;99.90
33715;DHT22;20043;50.998;4.754;2023-06-26T08:52:58;24.70;99.90
33715;DHT22;20043;50.998;4.754;2023-06-26T08:55:23;24.60;99.90
33715;DHT22;20043;50.998;4.754;2023-06-26T08:57:51;24.40;99.90
33715;DHT22;20043;50.998;4.754;2023-06-26T09:00:19;24.30;99.90
33715;DHT22;20043;50.998;4.754;2023-06-26T09:02:45;24.10;99.90
33715;DHT22;20043;50.998;4.754;2023-06-26T09:05:11;24.20;99.90
33715;DHT22;20043;50.998;4.754;2023-06-26T09:07:37;24.30;99.90
33715;DHT22;20043;50.998;4.754;2023-06-26T09:10:03;24.40;99.90
33715;DHT22;20043;50.998;4.754;2023-06-26T09:12:28;24.30;99.90
33715;DHT22;20043;50.998;4.754;2023-06-26T09:14:57;24.40;99.90
33715;DHT22;20043;50.998;4.754;2023-06-26T09:17:30;24.70;99.90
33715;DHT22;20043;50.998;4.754;2023-06-26T09:19:56;24.90;99.90
33715;DHT22;20043;50.998;4.754;2023-06-26T09:22:22;24.80;99.90
33715;DHT22;20043;50.998;4.754;2023-06-26T09:24:48;24.70;99.90
33715;DHT22;20043;50.998;4.754;2023-06-26T09:27:14;24.70;99.90
33715;DHT22;20043;50.998;4.754;2023-06-26T09:29:39;24.90;99.90
33715;DHT22;20043;50.998;4.754;2023-06-26T09:32:08;25.10;99.90
33715;DHT22;20043;50.998;4.754;2023-06-26T09:34:34;24.70;99.90
33715;DHT22;20043;50.998;4.754;2023-06-26T09:37:00;24.70;99.90
33715;DHT22;20043;50.998;4.754;2023-06-26T09:39:30;24.80;99.90
33715;DHT22;20043;50.998;4.754;2023-06-26T09:41:56;24.60;99.90
33715;DHT22;20043;50.998;4.754;2023-06-26T09:44:23;24.50;99.90
33715;DHT22;20043;50.998;4.754;2023-06-26T09:46:49;24.40;99.90
33715;DHT22;20043;50.998;4.754;2023-06-26T09:49:14;24.30;99.90
33715;DHT22;20043;50.998;4.754;2023-06-26T09:51:42;24.20;99.90
33715;DHT22;20043;50.998;4.754;2023-06-26T09:54:08;24.30;99.90
33715;DHT22;20043;50.998;4.754;2023-06-26T09:56:37;24.40;99.90
33715;DHT22;20043;50.998;4.754;2023-06-26T09:59:04;24.60;99.90
33715;DHT22;20043;50.998;4.754;2023-06-26T10:01:31;24.80;99.90
33715;DHT22;20043;50.998;4.754;2023-06-26T10:03:57;25.10;99.90
33715;DHT22;20043;50.998;4.754;2023-06-26T10:06:33;25.10;99.90
33715;DHT22;20043;50.998;4.754;2023-06-26T10:09:01;25.40;99.90
33715;DHT22;20043;50.998;4.754;2023-06-26T10:11:43;25.50;99.90
33715;DHT22;20043;50.998;4.754;2023-06-26T10:14:11;25.50;99.90
33715;DHT22;20043;50.998;4.754;2023-06-26T10:16:39;25.60;99.90
33715;DHT22;20043;50.998;4.754;2023-06-26T10:19:08;25.80;99.80
33715;DHT22;20043;50.998;4.754;2023-06-26T10:21:37;25.90;99.90
33715;DHT22;20043;50.998;4.754;2023-06-26T10:24:05;25.90;99.90
33715;DHT22;20043;50.998;4.754;2023-06-26T10:26:35;25.80;99.90
33715;DHT22;20043;50.998;4.754;2023-06-26T10:29:04;26.00;99.90
33715;DHT22;20043;50.998;4.754;2023-06-26T10:31:32;26.20;99.90
33715;DHT22;20043;50.998;4.754;2023-06-26T10:33:58;26.00;99.90
33715;DHT22;20043;50.998;4.754;2023-06-26T10:36:29;25.80;99.80
33715;DHT22;20043;50.998;4.754;2023-06-26T10:38:56;25.50;99.90
33715;DHT22;20043;50.998;4.754;2023-06-26T10:41:23;25.30;99.90
33715;DHT22;20043;50.998;4.754;2023-06-26T10:43:50;25.30;99.90
33715;DHT22;20043;50.998;4.754;2023-06-26T10:46:18;25.40;99.90
33715;DHT22;20043;50.998;4.754;2023-06-26T10:49:00;25.60;99.90
33715;DHT22;20043;50.998;4.754;2023-06-26T10:51:26;26.10;99.90
33715;DHT22;20043;50.998;4.754;2023-06-26T10:53:56;26.30;98.80
33715;DHT22;20043;50.998;4.754;2023-06-26T10:56:41;26.50;98.20
33715;DHT22;20043;50.998;4.754;2023-06-26T10:59:21;26.50;97.20
33715;DHT22;20043;50.998;4.754;2023-06-26T11:01:54;26.50;97.00
33715;DHT22;20043;50.998;4.754;2023-06-26T11:04:37;26.50;99.90
33715;DHT22;20043;50.998;4.754;2023-06-26T11:07:22;26.40;97.90
33715;DHT22;20043;50.998;4.754;2023-06-26T11:10:02;26.40;98.20
33715;DHT22;20043;50.998;4.754;2023-06-26T11:12:43;26.60;97.20
33715;DHT22;20043;50.998;4.754;2023-06-26T11:15:10;26.60;96.00
33715;DHT22;20043;50.998;4.754;2023-06-26T11:17:43;26.80;95.80
33715;DHT22;20043;50.998;4.754;2023-06-26T11:20:13;26.80;97.10
33715;DHT22;20043;50.998;4.754;2023-06-26T11:22:40;26.80;98.00
33715;DHT22;20043;50.998;4.754;2023-06-26T11:25:07;26.60;96.70
33715;DHT22;20043;50.998;4.754;2023-06-26T11:27:40;26.70;95.40
33715;DHT22;20043;50.998;4.754;2023-06-26T11:30:07;26.70;97.60
33715;DHT22;20043;50.998;4.754;2023-06-26T11:32:33;26.80;97.40
33715;DHT22;20043;50.998;4.754;2023-06-26T11:34:59;26.60;94.90
33715;DHT22;20043;50.998;4.754;2023-06-26T11:37:25;26.60;95.50
33715;DHT22;20043;50.998;4.754;2023-06-26T11:39:51;26.50;95.30
33715;DHT22;20043;50.998;4.754;2023-06-26T11:42:18;26.70;97.70
33715;DHT22;20043;50.998;4.754;2023-06-26T11:44:45;26.90;97.30
33715;DHT22;20043;50.998;4.754;2023-06-26T11:47:15;27.00;94.90
33715;DHT22;20043;50.998;4.754;2023-06-26T11:49:45;26.80;93.70
33715;DHT22;20043;50.998;4.754;2023-06-26T11:52:11;26.60;95.50
33715;DHT22;20043;50.998;4.754;2023-06-26T11:54:36;26.60;96.70
33715;DHT22;20043;50.998;4.754;2023-06-26T11:57:03;26.50;95.30
33715;DHT22;20043;50.998;4.754;2023-06-26T12:02:11;26.20;96.90
33715;DHT22;20043;50.998;4.754;2023-06-26T12:04:40;26.20;97.30
33715;DHT22;20043;50.998;4.754;2023-06-26T12:07:07;26.20;99.40
33715;DHT22;20043;50.998;4.754;2023-06-26T12:09:41;26.20;97.30
33715;DHT22;20043;50.998;4.754;2023-06-26T12:12:08;26.30;97.80
33715;DHT22;20043;50.998;4.754;2023-06-26T12:14:34;26.50;94.90
33715;DHT22;20043;50.998;4.754;2023-06-26T12:17:13;26.60;94.00
33715;DHT22;20043;50.998;4.754;2023-06-26T12:19:44;26.50;95.90
33715;DHT22;20043;50.998;4.754;2023-06-26T12:22:10;26.60;95.30
33715;DHT22;20043;50.998;4.754;2023-06-26T12:24:38;26.60;92.90
33715;DHT22;20043;50.998;4.754;2023-06-26T12:27:15;26.70;93.50
33715;DHT22;20043;50.998;4.754;2023-06-26T12:29:52;26.70;91.10
33715;DHT22;20043;50.998;4.754;2023-06-26T12:32:24;26.40;91.40
33715;DHT22;20043;50.998;4.754;2023-06-26T12:34:51;26.70;93.90
33715;DHT22;20043;50.998;4.754;2023-06-26T12:37:17;26.90;91.60
33715;DHT22;20043;50.998;4.754;2023-06-26T12:39:50;27.30;93.40
33715;DHT22;20043;50.998;4.754;2023-06-26T12:42:26;27.50;92.10
33715;DHT22;20043;50.998;4.754;2023-06-26T12:44:52;27.70;93.60
33715;DHT22;20043;50.998;4.754;2023-06-26T12:47:24;27.40;90.50
33715;DHT22;20043;50.998;4.754;2023-06-26T12:49:51;27.30;88.30
33715;DHT22;20043;50.998;4.754;2023-06-26T12:52:17;27.20;90.90
33715;DHT22;20043;50.998;4.754;2023-06-26T12:54:47;27.20;90.90
33715;DHT22;20043;50.998;4.754;2023-06-26T12:57:16;27.20;91.10
33715;DHT22;20043;50.998;4.754;2023-06-26T12:59:42;27.30;89.90
33715;DHT22;20043;50.998;4.754;2023-06-26T13:02:08;27.30;93.70
33715;DHT22;20043;50.998;4.754;2023-06-26T13:04:34;27.30;92.40
33715;DHT22;20043;50.998;4.754;2023-06-26T13:07:00;27.20;92.50
33715;DHT22;20043;50.998;4.754;2023-06-26T13:09:26;27.00;93.50
33715;DHT22;20043;50.998;4.754;2023-06-26T13:11:53;26.90;92.90
33715;DHT22;20043;50.998;4.754;2023-06-26T13:14:19;27.00;94.90
33715;DHT22;20043;50.998;4.754;2023-06-26T13:16:44;27.00;95.20
33715;DHT22;20043;50.998;4.754;2023-06-26T13:19:10;27.20;94.20
33715;DHT22;20043;50.998;4.754;2023-06-26T13:21:36;27.30;94.30
33715;DHT22;20043;50.998;4.754;2023-06-26T13:24:02;27.60;91.30
33715;DHT22;20043;50.998;4.754;2023-06-26T13:26:31;27.70;91.60
33715;DHT22;20043;50.998;4.754;2023-06-26T13:28:58;27.50;92.20
33715;DHT22;20043;50.998;4.754;2023-06-26T13:31:23;27.50;91.50
33715;DHT22;20043;50.998;4.754;2023-06-26T13:33:49;27.40;92.70
33715;DHT22;20043;50.998;4.754;2023-06-26T13:36:15;27.20;90.00
33715;DHT22;20043;50.998;4.754;2023-06-26T13:38:44;27.40;91.10
33715;DHT22;20043;50.998;4.754;2023-06-26T13:41:10;27.30;90.90
33715;DHT22;20043;50.998;4.754;2023-06-26T13:43:36;27.20;91.10
33715;DHT22;20043;50.998;4.754;2023-06-26T13:46:02;26.90;90.40
33715;DHT22;20043;50.998;4.754;2023-06-26T13:48:29;26.60;90.80
33715;DHT22;20043;50.998;4.754;2023-06-26T13:50:55;26.70;92.30
33715;DHT22;20043;50.998;4.754;2023-06-26T13:53:22;26.70;93.10
33715;DHT22;20043;50.998;4.754;2023-06-26T13:55:48;26.60;91.60
33715;DHT22;20043;50.998;4.754;2023-06-26T13:58:13;26.50;92.70
33715;DHT22;20043;50.998;4.754;2023-06-26T14:00:40;26.40;93.00
33715;DHT22;20043;50.998;4.754;2023-06-26T14:03:07;26.40;91.10
33715;DHT22;20043;50.998;4.754;2023-06-26T14:05:36;26.50;93.30
33715;DHT22;20043;50.998;4.754;2023-06-26T14:08:06;26.70;93.10
33715;DHT22;20043;50.998;4.754;2023-06-26T14:10:32;27.00;93.00
33715;DHT22;20043;50.998;4.754;2023-06-26T14:13:02;27.10;89.20
33715;DHT22;20043;50.998;4.754;2023-06-26T14:15:28;27.40;93.70
33715;DHT22;20043;50.998;4.754;2023-06-26T14:17:54;27.50;92.20
33715;DHT22;20043;50.998;4.754;2023-06-26T14:20:22;27.50;91.90
33715;DHT22;20043;50.998;4.754;2023-06-26T14:22:48;27.60;90.70
33715;DHT22;20043;50.998;4.754;2023-06-26T14:25:14;27.30;89.20
33715;DHT22;20043;50.998;4.754;2023-06-26T14:27:40;27.20;89.50
33715;DHT22;20043;50.998;4.754;2023-06-26T14:30:07;27.00;90.50
33715;DHT22;20043;50.998;4.754;2023-06-26T14:32:33;26.90;94.20
33715;DHT22;20043;50.998;4.754;2023-06-26T14:34:59;26.90;92.70
33715;DHT22;20043;50.998;4.754;2023-06-26T14:37:25;26.70;91.70
33715;DHT22;20043;50.998;4.754;2023-06-26T14:39:51;26.50;92.10
33715;DHT22;20043;50.998;4.754;2023-06-26T14:42:17;26.30;92.20
33715;DHT22;20043;50.998;4.754;2023-06-26T14:44:43;26.00;92.40
33715;DHT22;20043;50.998;4.754;2023-06-26T14:47:08;26.10;94.10
33715;DHT22;20043;50.998;4.754;2023-06-26T14:49:34;26.20;93.90
33715;DHT22;20043;50.998;4.754;2023-06-26T14:51:59;26.40;95.30
33715;DHT22;20043;50.998;4.754;2023-06-26T14:54:25;26.30;93.00
33715;DHT22;20043;50.998;4.754;2023-06-26T14:56:51;26.20;94.70
33715;DHT22;20043;50.998;4.754;2023-06-26T14:59:16;26.40;93.60
33715;DHT22;20043;50.998;4.754;2023-06-26T15:01:42;26.30;92.20
33715;DHT22;20043;50.998;4.754;2023-06-26T15:04:07;26.30;94.20
33715;DHT22;20043;50.998;4.754;2023-06-26T15:06:34;26.40;94.00
33715;DHT22;20043;50.998;4.754;2023-06-26T15:08:59;26.50;94.90
33715;DHT22;20043;50.998;4.754;2023-06-26T15:11:25;26.70;95.80
33715;DHT22;20043;50.998;4.754;2023-06-26T15:13:51;26.60;94.90
33715;DHT22;20043;50.998;4.754;2023-06-26T15:16:17;26.60;94.50
33715;DHT22;20043;50.998;4.754;2023-06-26T15:18:43;26.60;95.50
33715;DHT22;20043;50.998;4.754;2023-06-26T15:21:09;26.50;95.10
33715;DHT22;20043;50.998;4.754;2023-06-26T15:23:34;26.50;95.30
33715;DHT22;20043;50.998;4.754;2023-06-26T15:26:00;26.30;93.30
33715;DHT22;20043;50.998;4.754;2023-06-26T15:28:26;26.10;94.40
33715;DHT22;20043;50.998;4.754;2023-06-26T15:30:52;26.00;96.40
33715;DHT22;20043;50.998;4.754;2023-06-26T15:33:17;26.00;95.30
33715;DHT22;20043;50.998;4.754;2023-06-26T15:35:43;26.00;97.20
33715;DHT22;20043;50.998;4.754;2023-06-26T15:38:10;26.00;96.40
33715;DHT22;20043;50.998;4.754;2023-06-26T15:40:35;25.90;96.20
33715;DHT22;20043;50.998;4.754;2023-06-26T15:43:01;25.80;95.30
33715;DHT22;20043;50.998;4.754;2023-06-26T15:45:26;25.60;98.50